Time;durP1;ratioP1;P1;durP2;ratioP2;P2;SDS_P1;SDS_P2;PMS_P1;PMS_P2;Temp;Humidity;BMP_temperature;BMP_pressure;BME280_temperature;BME280_humidity;BME280_pressure;Samples;Min_cycle;Max_cycle;Signal;HPM_P1;HPM_P2
2022/01/24 00:01:30;;;;;;;62.85;34.58;;;;;;;5.14;92.99;103404.47;5075234;28;20029;-69
2022/01/24 00:03:58;;;;;;;61.72;34.42;;;;;;;5.12;92.48;103399.22;5075068;28;20128;-68
2022/01/24 00:06:24;;;;;;;58.53;33.03;;;;;;;5.05;91.64;103389.31;5074990;28;20024;-68
2022/01/24 00:08:50;;;;;;;56.30;33.25;;;;;;;5.13;90.53;103406.19;5074829;28;20024;-69
2022/01/24 00:11:19;;;;;;;53.30;30.88;;;;;;;5.11;88.46;103396.53;5075034;28;20043;-67
2022/01/24 00:27:16;;;;;;;58.50;33.47;;;;;;;5.06;89.41;103406.69;5074396;28;20513;-68
2022/01/24 00:29:41;;;;;;;57.15;33.13;;;;;;;5.02;90.01;103388.31;5074851;28;20111;-70
2022/01/24 00:32:07;;;;;;;57.05;33.15;;;;;;;5.05;91.28;103396.22;5074486;28;20024;-69
2022/01/24 00:34:33;;;;;;;60.53;33.67;;;;;;;5.01;90.34;103392.59;5074980;28;20025;-67
2022/01/24 00:36:58;;;;;;;52.33;30.73;;;;;;;5.06;88.64;103395.41;5074564;28;20428;-67
2022/01/24 00:39:24;;;;;;;57.60;32.33;;;;;;;5.04;89.49;103397.03;5074269;28;20024;-68
2022/01/24 00:42:17;;;;;;;50.40;29.42;;;;;;;5.01;87.87;103389.13;5074418;28;20041;-68
2022/01/24 00:44:50;;;;;;;46.53;27.20;;;;;;;5.01;86.70;103390.00;5074597;28;20043;-68
2022/01/24 00:47:22;;;;;;;48.25;26.85;;;;;;;5.04;87.14;103382.34;5074703;28;20025;-67
2022/01/24 00:55:17;;;;;;;41.17;23.95;;;;;;;5.04;85.13;103390.13;5078482;28;20051;-69
2022/01/24 00:57:42;;;;;;;40.72;24.38;;;;;;;4.99;85.72;103389.03;5078697;28;20036;-70
2022/01/24 01:00:08;;;;;;;42.45;25.15;;;;;;;5.00;85.50;103402.91;5078454;28;20033;-70
2022/01/24 01:02:33;;;;;;;42.53;25.52;;;;;;;4.97;86.22;103395.84;5078021;28;20033;-68
2022/01/24 01:05:10;;;;;;;44.92;26.45;;;;;;;5.01;87.46;103392.59;5078151;28;20471;-68
2022/01/24 01:07:53;;;;;;;40.45;25.00;;;;;;;4.96;86.60;103381.09;5078407;28;20070;-68
2022/01/24 01:18:30;;;;;;;45.88;25.75;;;;;;;4.95;86.66;103373.22;5078050;28;20047;-70
2022/01/24 01:23:28;;;;;;;42.55;25.98;;;;;;;4.99;85.80;103382.97;5077786;28;20055;-69
2022/01/24 01:25:54;;;;;;;45.60;27.20;;;;;;;4.95;85.24;103384.50;5077890;28;20106;-69
2022/01/24 01:28:20;;;;;;;45.35;26.38;;;;;;;4.90;85.15;103379.06;5077851;28;20028;-69
2022/01/24 01:30:50;;;;;;;44.45;26.23;;;;;;;4.91;85.58;103374.78;5086458;28;20036;-66
2022/01/24 01:33:29;;;;;;;44.55;27.00;;;;;;;4.94;86.21;103372.34;5082794;28;20064;-68
2022/01/24 01:36:18;;;;;;;45.58;26.58;;;;;;;4.90;86.11;103368.69;5078515;28;20462;-69
2022/01/24 01:39:40;;;;;;;43.47;26.23;;;;;;;4.99;86.33;103377.78;5077896;28;20044;-70
2022/01/24 01:52:53;;;;;;;39.20;24.45;;;;;;;4.89;85.03;103376.41;5077382;28;20404;-69
2022/01/24 01:55:37;;;;;;;42.45;24.58;;;;;;;4.88;85.49;103383.28;5077317;28;20028;-70
2022/01/24 01:58:05;;;;;;;43.60;24.60;;;;;;;4.97;85.64;103387.19;5077407;28;20032;-68
2022/01/24 02:00:31;;;;;;;38.85;23.95;;;;;;;4.92;85.36;103373.97;5077330;28;20455;-68
2022/01/24 02:02:56;;;;;;;44.28;25.65;;;;;;;4.87;85.16;103371.13;5076671;28;20115;-69
2022/01/24 02:05:22;;;;;;;40.38;24.42;;;;;;;4.89;85.41;103376.41;5076835;28;20033;-70
2022/01/24 02:07:49;;;;;;;40.70;24.08;;;;;;;4.85;85.40;103374.47;5077239;28;20031;-69
2022/01/24 02:10:19;;;;;;;40.60;24.08;;;;;;;4.90;85.09;103376.47;5077236;28;20029;-69
2022/01/24 02:12:44;;;;;;;43.88;24.63;;;;;;;4.89;85.25;103368.63;5077011;28;20079;-69
2022/01/24 02:15:11;;;;;;;41.92;23.48;;;;;;;4.89;85.02;103377.28;5077028;28;20076;-70
2022/01/24 02:17:55;;;;;;;42.63;24.85;;;;;;;4.90;84.94;103376.47;5077046;28;20055;-69
2022/01/24 02:20:27;;;;;;;44.38;24.23;;;;;;;4.86;85.17;103364.16;5076850;28;20028;-70
2022/01/24 02:25:37;;;;;;;39.30;23.75;;;;;;;4.88;84.24;103365.13;5076328;28;19923;-71
2022/01/24 02:28:04;;;;;;;39.95;23.50;;;;;;;4.89;84.30;103360.84;5077053;28;20032;-69
2022/01/24 02:33:13;;;;;;;37.17;23.40;;;;;;;4.82;82.58;103359.66;5076732;28;20360;-72
2022/01/24 02:35:40;;;;;;;37.97;23.85;;;;;;;4.86;83.29;103365.88;5076541;28;20032;-69
2022/01/24 02:38:14;;;;;;;38.53;23.55;;;;;;;4.83;83.39;103373.53;5077314;28;20127;-71
2022/01/24 02:40:40;;;;;;;37.55;22.60;;;;;;;4.79;82.78;103359.50;5076345;28;20032;-69
2022/01/24 02:48:22;;;;;;;39.22;23.25;;;;;;;4.71;83.87;103345.22;5076798;28;20048;-68
2022/01/24 02:48:46;;;;;;;37.38;21.88;;;;;;;4.79;83.50;103362.09;5076190;28;20412;-68
2022/01/24 02:53:38;;;;;;;40.50;22.75;;;;;;;4.70;82.62;103347.75;5076138;28;20410;-69
2022/01/24 02:56:05;;;;;;;39.67;23.52;;;;;;;4.68;84.61;103337.28;5076685;28;20040;-70
2022/01/24 02:58:30;;;;;;;39.15;24.08;;;;;;;4.82;85.60;103353.56;5075837;28;20409;-70
2022/01/24 03:00:56;;;;;;;42.20;24.73;;;;;;;4.75;85.86;103349.78;5076121;28;20074;-70
2022/01/24 03:03:22;;;;;;;39.75;24.38;;;;;;;4.75;83.43;103348.88;5076165;28;20040;-69
2022/01/24 03:05:48;;;;;;;38.03;22.85;;;;;;;4.78;85.75;103352.53;5075735;28;20111;-72
2022/01/24 03:08:14;;;;;;;40.63;24.33;;;;;;;4.76;85.92;103343.78;5075502;28;20489;-68
2022/01/24 03:10:44;;;;;;;40.42;24.60;;;;;;;4.78;85.73;103346.44;5075906;28;20094;-69
2022/01/24 03:15:44;;;;;;;37.78;23.90;;;;;;;4.71;85.68;103329.66;5074788;28;20040;-70
2022/01/24 03:18:10;;;;;;;40.20;24.38;;;;;;;4.73;85.87;103342.72;5076306;28;20173;-67
2022/01/24 03:20:36;;;;;;;39.78;23.90;;;;;;;4.70;86.07;103337.38;5075515;28;20118;-69
2022/01/24 03:23:02;;;;;;;35.15;22.17;;;;;;;4.73;84.38;103343.63;5075783;28;20103;-69
2022/01/24 03:25:28;;;;;;;42.38;24.05;;;;;;;4.71;85.87;103339.16;5075668;28;20054;-69
2022/01/24 03:27:53;;;;;;;42.08;24.67;;;;;;;4.57;85.79;103314.22;5075442;28;20424;-69
2022/01/24 03:30:18;;;;;;;39.92;24.70;;;;;;;4.71;84.73;103337.44;5075545;28;20036;-69
2022/01/24 03:32:44;;;;;;;43.05;25.15;;;;;;;4.70;85.01;103330.47;5075594;28;20046;-70
2022/01/24 03:35:09;;;;;;;41.85;24.85;;;;;;;4.69;85.33;103326.09;5075225;28;20067;-68
2022/01/24 03:37:35;;;;;;;41.20;24.45;;;;;;;4.74;85.46;103334.13;5075166;28;20104;-69
2022/01/24 03:40:02;;;;;;;40.90;24.30;;;;;;;4.71;84.93;103323.59;5075536;28;20108;-69
2022/01/24 03:42:27;;;;;;;41.03;24.10;;;;;;;4.75;85.87;103336.81;5075271;28;20032;-71
2022/01/24 03:44:57;;;;;;;40.33;24.60;;;;;;;4.72;87.63;103322.78;5075412;28;20023;-68
2022/01/24 03:50:00;;;;;;;42.55;26.00;;;;;;;4.68;85.63;103324.31;5075444;28;20041;-70
2022/01/24 03:52:26;;;;;;;42.03;24.98;;;;;;;4.73;84.37;103337.53;5075105;28;20071;-68
2022/01/24 03:54:52;;;;;;;41.83;25.15;;;;;;;4.69;85.17;103345.97;5075175;28;20111;-69
2022/01/24 03:57:19;;;;;;;45.17;25.92;;;;;;;4.64;85.06;103334.50;5075191;28;20040;-70
2022/01/24 03:59:45;;;;;;;40.67;25.42;;;;;;;4.67;84.61;103337.25;5074622;28;20036;-71
2022/01/24 04:02:12;;;;;;;41.13;26.08;;;;;;;4.70;84.49;103338.25;5074790;28;20043;-70
2022/01/24 04:04:37;;;;;;;42.35;25.90;;;;;;;4.62;84.24;103328.34;5074970;28;20145;-69
2022/01/24 04:07:03;;;;;;;45.03;26.42;;;;;;;4.64;83.98;103334.50;5075178;28;20111;-69
2022/01/24 04:09:29;;;;;;;39.80;25.10;;;;;;;4.62;84.13;103337.00;5079086;28;20474;-67
2022/01/24 04:11:57;;;;;;;44.28;26.88;;;;;;;4.60;83.66;103335.13;5085098;28;20112;-67
2022/01/24 04:14:31;;;;;;;41.38;25.90;;;;;;;4.65;83.91;103338.88;5076061;28;20068;-70
2022/01/24 04:17:19;;;;;;;44.72;26.80;;;;;;;4.66;86.24;103332.88;5074893;28;20036;-70
2022/01/24 04:22:38;;;;;;;43.30;27.42;;;;;;;4.63;88.09;103325.81;5072564;28;20036;-70
2022/01/24 04:25:05;;;;;;;43.88;27.42;;;;;;;4.64;88.35;103326.72;5074518;28;20024;-69
2022/01/24 04:27:31;;;;;;;45.72;26.48;;;;;;;4.61;88.28;103317.06;5074531;28;20031;-70
2022/01/24 04:29:57;;;;;;;46.20;26.52;;;;;;;4.62;87.27;103328.34;5074671;28;20051;-69
2022/01/24 04:32:23;;;;;;;44.90;27.08;;;;;;;4.61;86.06;103329.16;5074883;28;20036;-69
2022/01/24 04:34:49;;;;;;;43.33;27.05;;;;;;;4.59;87.24;103325.56;5074871;28;20037;-70
2022/01/24 04:37:16;;;;;;;45.03;26.88;;;;;;;4.61;86.84;103334.34;5074072;28;20032;-70
2022/01/24 04:39:43;;;;;;;44.90;26.70;;;;;;;4.58;87.61;103326.38;5074582;28;20039;-68
2022/01/24 04:42:18;;;;;;;43.40;27.30;;;;;;;4.59;86.03;103341.13;5074665;28;20033;-72
2022/01/24 04:44:56;;;;;;;46.38;27.05;;;;;;;4.59;84.96;103339.44;5075068;28;20028;-69
2022/01/24 04:47:29;;;;;;;44.28;26.52;;;;;;;4.53;87.16;103323.56;5074696;28;20355;-69
2022/01/24 04:55:04;;;;;;;45.83;25.35;;;;;;;4.54;85.64;103335.72;5074450;28;20040;-70
2022/01/24 04:57:30;;;;;;;41.13;24.17;;;;;;;4.51;85.79;103325.16;5074577;28;20051;-69
2022/01/24 04:59:58;;;;;;;45.53;25.73;;;;;;;4.54;85.82;103333.13;5074654;28;20028;-68
2022/01/24 05:02:25;;;;;;;40.28;24.23;;;;;;;4.49;86.70;103332.00;5074551;28;20028;-71
2022/01/24 05:04:52;;;;;;;42.28;24.80;;;;;;;4.53;86.54;103333.94;5074850;28;20078;-70
2022/01/24 05:07:17;;;;;;;41.58;24.92;;;;;;;4.51;85.30;103344.22;5074504;28;20033;-70
2022/01/24 05:10:09;;;;;;;41.50;25.77;;;;;;;4.47;86.61;103336.22;5074723;28;20040;-68
2022/01/24 05:25:56;;;;;;;45.13;26.10;;;;;;;4.47;85.77;103344.00;5074272;28;20059;-69
2022/01/24 05:28:22;;;;;;;41.65;25.25;;;;;;;4.42;84.59;103335.09;5074280;28;20123;-69
2022/01/24 05:30:48;;;;;;;43.20;25.67;;;;;;;4.46;86.55;103340.53;5074109;28;20112;-68
2022/01/24 05:33:13;;;;;;;42.47;25.48;;;;;;;4.45;87.48;103328.38;5074370;28;20050;-69
2022/01/24 05:35:39;;;;;;;43.80;25.58;;;;;;;4.42;87.38;103330.78;5074077;28;20021;-68
2022/01/24 05:38:04;;;;;;;44.80;25.88;;;;;;;4.40;86.79;103315.97;5075330;28;20033;-69
2022/01/24 05:40:30;;;;;;;45.40;24.95;;;;;;;4.47;86.96;103328.44;5077535;28;20024;-69
2022/01/24 05:42:55;;;;;;;41.17;24.20;;;;;;;4.42;87.23;103327.31;5077375;28;20028;-69
2022/01/24 05:45:21;;;;;;;39.28;24.05;;;;;;;4.40;86.48;103324.63;5077719;28;20024;-67
2022/01/24 05:47:46;;;;;;;39.38;23.25;;;;;;;4.41;85.91;103325.53;5078033;28;20393;-68
2022/01/24 05:50:11;;;;;;;39.05;22.63;;;;;;;4.34;84.19;103320.81;5077564;28;20448;-70
2022/01/24 05:52:37;;;;;;;38.92;24.05;;;;;;;4.35;86.05;103328.69;5077316;28;20051;-68
2022/01/24 05:55:04;;;;;;;38.85;23.23;;;;;;;4.40;86.16;103341.88;5084422;28;20125;-71
2022/01/24 05:57:29;;;;;;;40.15;23.90;;;;;;;4.40;85.77;103334.13;5117718;28;20037;-69
2022/01/24 05:59:55;;;;;;;43.25;25.10;;;;;;;4.37;86.54;103333.94;5117405;28;20118;-69
2022/01/24 06:02:20;;;;;;;40.22;23.63;;;;;;;4.33;85.37;103329.44;5117763;28;20032;-70
2022/01/24 06:04:46;;;;;;;38.75;23.30;;;;;;;4.39;84.75;103340.09;5117141;28;20027;-70
2022/01/24 06:07:11;;;;;;;41.63;23.90;;;;;;;4.41;85.08;103341.09;5117252;28;20385;-69
2022/01/24 06:09:36;;;;;;;42.92;25.00;;;;;;;4.34;85.61;103332.09;5117662;28;20027;-68
2022/01/24 06:12:02;;;;;;;42.50;25.00;;;;;;;4.33;86.03;103340.66;5114529;28;20034;-61
2022/01/24 06:14:28;;;;;;;40.53;24.98;;;;;;;4.34;85.74;103339.88;5080092;28;20044;-70
2022/01/24 06:16:53;;;;;;;42.83;24.17;;;;;;;4.29;85.95;103328.38;5076889;28;20029;-70
2022/01/24 06:19:18;;;;;;;41.80;24.27;;;;;;;4.29;85.19;103330.97;5076690;28;20115;-71
2022/01/24 06:21:45;;;;;;;39.45;23.55;;;;;;;4.26;86.12;103320.44;5076999;28;20032;-71
2022/01/24 06:24:11;;;;;;;44.47;25.23;;;;;;;4.33;85.66;103337.22;5059195;28;20117;-60
2022/01/24 06:26:36;;;;;;;42.78;23.42;;;;;;;4.29;85.70;103330.09;5076510;28;20464;-65
2022/01/24 06:29:02;;;;;;;40.33;23.05;;;;;;;4.27;85.34;103335.19;5076604;28;20032;-68
2022/01/24 06:31:28;;;;;;;37.92;22.52;;;;;;;4.25;84.86;103334.22;5076401;28;20111;-69
2022/01/24 06:33:53;;;;;;;36.22;21.60;;;;;;;4.27;85.68;103339.47;5076429;28;20111;-69
2022/01/24 06:36:18;;;;;;;38.45;21.23;;;;;;;4.25;85.52;103341.09;5076418;28;20025;-66
2022/01/24 06:38:44;;;;;;;38.90;22.08;;;;;;;4.24;85.70;103336.72;5076287;28;20032;-67
2022/01/24 06:41:09;;;;;;;40.63;21.75;;;;;;;4.21;85.83;103334.84;5076562;28;20078;-66
2022/01/24 06:43:34;;;;;;;35.65;20.83;;;;;;;4.19;85.46;103326.09;5076090;28;20101;-66
2022/01/24 06:46:01;;;;;;;35.70;20.63;;;;;;;4.17;85.98;103333.81;5076500;28;20056;-69
2022/01/24 06:48:26;;;;;;;36.92;20.52;;;;;;;4.18;86.29;103329.50;5076331;28;20067;-67
2022/01/24 06:50:52;;;;;;;36.17;20.83;;;;;;;4.22;85.73;103349.59;5080920;28;20028;-64
2022/01/24 06:53:17;;;;;;;36.55;20.92;;;;;;;4.22;87.28;103347.00;5078335;28;20032;-66
2022/01/24 06:55:42;;;;;;;41.08;22.27;;;;;;;4.18;85.83;103343.34;5075960;28;20043;-65
2022/01/24 06:58:07;;;;;;;37.50;21.75;;;;;;;4.19;86.67;103349.44;5076051;28;20032;-69
2022/01/24 07:00:33;;;;;;;39.88;22.08;;;;;;;4.17;86.90;103348.44;5076029;28;20115;-65
2022/01/24 07:02:59;;;;;;;40.75;22.77;;;;;;;4.17;85.51;103349.34;5075799;28;20024;-68
2022/01/24 07:05:26;;;;;;;40.47;22.05;;;;;;;4.15;86.36;103355.28;5075306;28;20343;-66
2022/01/24 07:07:52;;;;;;;41.00;22.73;;;;;;;4.14;86.01;103345.72;5075751;28;20425;-67
2022/01/24 07:10:17;;;;;;;38.00;21.75;;;;;;;4.16;86.41;103351.84;5075513;28;20040;-66
2022/01/24 07:12:43;;;;;;;40.38;21.40;;;;;;;4.14;86.97;103351.81;5075223;28;20131;-66
2022/01/24 07:15:12;;;;;;;39.38;20.80;;;;;;;4.15;85.88;103361.38;5075413;28;20028;-66
2022/01/24 07:20:22;;;;;;;35.28;20.10;;;;;;;3.88;85.81;103309.75;5075430;28;20067;-66
2022/01/24 07:22:47;;;;;;;36.70;20.33;;;;;;;4.14;86.20;103358.69;5075523;28;20024;-67
2022/01/24 07:25:13;;;;;;;37.55;20.98;;;;;;;4.17;86.31;103362.31;5074989;28;20028;-66
2022/01/24 07:27:38;;;;;;;35.78;20.55;;;;;;;4.16;86.49;103364.81;5075272;28;20029;-66
2022/01/24 07:30:04;;;;;;;36.38;21.52;;;;;;;4.12;86.22;103365.47;5075623;28;20347;-66
2022/01/24 07:32:30;;;;;;;39.53;21.88;;;;;;;4.11;86.04;103361.09;5075023;28;20044;-68
2022/01/24 07:34:56;;;;;;;38.88;21.15;;;;;;;4.15;87.01;103368.25;5075037;28;20040;-67
2022/01/24 07:37:22;;;;;;;41.55;21.88;;;;;;;4.18;86.80;103366.69;5074939;28;20104;-69
2022/01/24 07:39:48;;;;;;;38.63;20.83;;;;;;;4.14;87.05;103361.28;5074754;28;20444;-68
2022/01/24 07:42:16;;;;;;;39.90;20.92;;;;;;;4.13;86.03;103357.78;5074762;28;20099;-68
2022/01/24 07:44:42;;;;;;;35.85;21.05;;;;;;;4.12;86.04;103357.72;5075147;28;20035;-67
2022/01/24 07:47:08;;;;;;;39.05;21.30;;;;;;;4.10;86.54;103351.56;5074582;28;20040;-67
2022/01/24 07:49:34;;;;;;;37.42;21.10;;;;;;;4.15;85.57;103360.47;5074876;28;20032;-68
2022/01/24 07:52:00;;;;;;;41.50;21.92;;;;;;;4.12;85.73;103357.72;5074915;28;20048;-68
2022/01/24 07:54:25;;;;;;;38.65;21.55;;;;;;;4.12;86.17;103370.66;5074960;28;20028;-68
2022/01/24 07:56:50;;;;;;;41.92;23.17;;;;;;;4.12;86.11;103368.06;5074748;28;20074;-67
2022/01/24 07:59:16;;;;;;;41.13;23.10;;;;;;;4.02;86.31;103361.50;5074921;28;20048;-69
2022/01/24 08:01:41;;;;;;;41.38;23.35;;;;;;;4.14;85.43;103382.91;5073851;28;20107;-67
2022/01/24 08:04:07;;;;;;;41.25;23.45;;;;;;;4.15;86.11;103383.78;5074586;28;20038;-70
2022/01/24 08:06:33;;;;;;;41.95;23.45;;;;;;;4.12;85.63;103384.50;5074746;28;20020;-69
2022/01/24 08:08:58;;;;;;;43.15;24.23;;;;;;;4.16;86.43;103390.72;5074507;28;20419;-68
2022/01/24 08:11:24;;;;;;;39.05;22.92;;;;;;;4.13;86.14;103388.00;5074696;28;20024;-67
2022/01/24 08:13:51;;;;;;;44.92;24.52;;;;;;;4.13;84.68;103391.47;5074455;28;20375;-67
2022/01/24 08:16:17;;;;;;;44.15;26.58;;;;;;;4.15;83.67;103407.13;5074457;28;20043;-68
2022/01/24 08:18:42;;;;;;;45.38;26.50;;;;;;;4.19;84.57;103393.47;5074907;28;20028;-67
2022/01/24 08:21:08;;;;;;;42.20;24.75;;;;;;;4.19;84.22;103399.56;5074499;28;20128;-66
2022/01/24 08:23:33;;;;;;;43.72;25.48;;;;;;;4.14;83.50;103401.03;5074570;28;20029;-67
2022/01/24 08:25:58;;;;;;;40.60;24.10;;;;;;;4.15;83.09;103396.75;5081623;28;20020;-67
2022/01/24 08:28:23;;;;;;;42.45;24.77;;;;;;;4.13;83.61;103393.19;5115072;28;20423;-68
2022/01/24 08:30:49;;;;;;;43.67;25.08;;;;;;;4.14;82.62;103398.44;5114897;28;20046;-67
2022/01/24 08:33:14;;;;;;;43.55;24.63;;;;;;;4.13;83.38;103388.88;5114976;28;20034;-68
2022/01/24 08:35:39;;;;;;;44.65;26.23;;;;;;;4.12;83.80;103393.97;5115053;28;20091;-68
2022/01/24 08:38:05;;;;;;;39.72;24.23;;;;;;;4.20;82.97;103398.75;5115336;28;20027;-67
2022/01/24 08:40:32;;;;;;;42.85;25.02;;;;;;;4.17;83.30;103400.28;5115266;28;20110;-68
2022/01/24 08:43:02;;;;;;;45.13;25.00;;;;;;;4.12;83.34;103396.56;5114940;28;20030;-67
2022/01/24 08:48:09;;;;;;;43.45;25.65;;;;;;;4.18;82.91;103396.88;5095087;28;20499;-68
2022/01/24 08:50:35;;;;;;;44.17;26.05;;;;;;;4.17;83.71;103398.59;5095192;28;20091;-67
2022/01/24 08:53:02;;;;;;;45.70;25.55;;;;;;;4.16;83.55;103391.63;5094676;28;20092;-66
2022/01/24 08:55:33;;;;;;;44.97;26.38;;;;;;;4.18;83.23;103404.66;5094678;28;20039;-68
2022/01/24 08:58:00;;;;;;;45.22;26.23;;;;;;;4.12;82.23;103401.75;5093869;28;20409;-68
2022/01/24 09:00:26;;;;;;;45.08;27.52;;;;;;;4.13;82.49;103396.66;5094373;28;20050;-66
2022/01/24 09:02:52;;;;;;;47.95;27.73;;;;;;;4.19;83.11;103402.16;5094550;28;20024;-66
2022/01/24 09:05:18;;;;;;;42.83;25.63;;;;;;;4.20;83.20;103406.53;5094465;28;20039;-67
2022/01/24 09:07:44;;;;;;;41.13;25.00;;;;;;;4.23;82.61;103403.22;5094267;28;20355;-69
2022/01/24 09:10:11;;;;;;;44.05;26.05;;;;;;;4.28;82.85;103408.66;5094404;28;20035;-66
2022/01/24 09:12:37;;;;;;;46.47;25.63;;;;;;;4.29;82.31;103410.44;5094879;28;20040;-67
2022/01/24 09:15:03;;;;;;;40.55;24.50;;;;;;;4.30;82.18;103407.03;5106533;28;20362;-68
2022/01/24 09:17:28;;;;;;;44.97;26.23;;;;;;;4.22;81.88;103400.53;5101287;28;20027;-68
2022/01/24 09:19:53;;;;;;;46.53;26.05;;;;;;;4.31;82.40;103403.63;5097970;28;20081;-67
2022/01/24 09:22:18;;;;;;;43.65;25.42;;;;;;;4.30;83.07;103407.94;5098275;28;20182;-67
2022/01/24 09:24:44;;;;;;;44.75;25.00;;;;;;;4.32;83.59;103405.41;5098238;28;20024;-68
2022/01/24 09:27:09;;;;;;;42.83;24.23;;;;;;;4.34;83.22;103412.44;5097914;28;20398;-70
2022/01/24 09:29:34;;;;;;;44.42;24.42;;;;;;;4.38;82.15;103416.09;5097948;28;20028;-67
2022/01/24 09:32:00;;;;;;;41.55;23.65;;;;;;;4.35;81.87;103413.34;5097899;28;20412;-66
2022/01/24 09:34:25;;;;;;;41.83;24.73;;;;;;;4.43;82.21;103410.34;5099572;28;20024;-66
2022/01/24 09:36:51;;;;;;;43.60;25.27;;;;;;;4.35;82.06;103398.66;5104390;28;20085;-65
2022/01/24 09:39:17;;;;;;;40.45;23.65;;;;;;;4.44;81.76;103408.66;5099356;28;20197;-69
2022/01/24 09:41:44;;;;;;;41.10;23.45;;;;;;;4.38;81.91;103409.22;5098180;28;20020;-67
2022/01/24 09:44:09;;;;;;;41.13;24.02;;;;;;;4.41;81.94;103414.56;5097727;28;20043;-68
2022/01/24 09:46:36;;;;;;;43.38;23.52;;;;;;;4.43;82.70;103397.38;5097800;28;20036;-67
2022/01/24 09:49:03;;;;;;;40.08;23.05;;;;;;;4.47;79.90;103411.41;5097895;28;20086;-70
2022/01/24 09:51:28;;;;;;;42.38;23.85;;;;;;;4.47;81.39;103404.53;5097580;28;20024;-67
2022/01/24 09:53:55;;;;;;;40.65;22.90;;;;;;;4.49;81.19;103399.41;5082893;28;20115;-70
2022/01/24 09:56:20;;;;;;;41.00;22.55;;;;;;;4.50;81.69;103407.25;5076747;28;20111;-68
2022/01/24 09:58:45;;;;;;;41.05;23.05;;;;;;;4.59;80.47;103408.56;5077408;28;20400;-70
2022/01/24 10:01:13;;;;;;;41.33;23.67;;;;;;;4.56;80.83;103401.50;5076742;28;20376;-68
2022/01/24 10:03:38;;;;;;;39.25;22.90;;;;;;;4.59;80.21;103395.59;5059369;28;20029;-69
2022/01/24 10:06:04;;;;;;;39.80;22.58;;;;;;;4.63;81.16;103398.44;5077066;28;20032;-68
2022/01/24 10:08:30;;;;;;;43.10;23.35;;;;;;;4.71;80.13;103398.81;5076970;28;20035;-68
2022/01/24 10:10:59;;;;;;;40.80;23.45;;;;;;;4.65;80.84;103407.19;5076623;28;20028;-68
2022/01/24 10:16:37;;;;;;;41.88;23.30;;;;;;;4.75;80.46;103401.66;5076861;28;20466;-69
2022/01/24 10:19:19;;;;;;;41.53;23.02;;;;;;;4.78;80.65;103395.72;5076862;28;20578;-70
2022/01/24 10:22:02;;;;;;;38.30;21.35;;;;;;;4.79;80.52;103393.22;5077108;28;20047;-71
2022/01/24 10:24:30;;;;;;;34.55;20.23;;;;;;;4.81;79.10;103404.56;5076343;28;20101;-70
2022/01/24 10:27:15;;;;;;;39.90;22.05;;;;;;;4.85;80.16;103405.59;5076671;28;20024;-70
2022/01/24 10:29:58;;;;;;;37.80;21.45;;;;;;;4.81;79.89;103401.09;5076362;28;20355;-70
2022/01/24 10:32:37;;;;;;;34.58;19.88;;;;;;;4.80;79.94;103399.28;5076660;28;20028;-70
2022/01/24 10:35:21;;;;;;;34.03;19.83;;;;;;;4.81;79.59;103406.28;5076645;28;20024;-68
2022/01/24 10:37:49;;;;;;;35.50;19.27;;;;;;;4.79;79.56;103397.50;5077298;28;20044;-69
2022/01/24 10:43:30;;;;;;;34.65;19.48;;;;;;;4.89;79.57;103379.00;5004623;28;20367;-68
2022/01/24 10:45:57;;;;;;;32.80;18.55;;;;;;;4.94;78.48;103393.09;5076552;28;20116;-69
2022/01/24 10:48:28;;;;;;;37.08;19.15;;;;;;;4.88;78.14;103387.59;5076162;28;20359;-71
2022/01/24 10:51:22;;;;;;;36.17;19.95;;;;;;;4.96;79.90;103381.09;5076246;28;20446;-70
2022/01/24 10:53:51;;;;;;;33.00;19.15;;;;;;;4.98;78.51;103381.19;5082766;28;20036;-69
2022/01/24 10:56:30;;;;;;;34.55;19.70;;;;;;;5.08;79.85;103378.22;5096720;28;20044;-69
2022/01/24 10:59:01;;;;;;;34.25;19.52;;;;;;;5.10;78.60;103385.25;5077983;28;20081;-70
2022/01/24 11:01:28;;;;;;;37.08;19.35;;;;;;;5.08;78.52;103366.13;5096127;28;20503;-70
2022/01/24 11:03:58;;;;;;;31.88;18.65;;;;;;;5.17;79.03;103374.38;5096456;28;20081;-69
2022/01/24 11:06:28;;;;;;;34.28;19.70;;;;;;;5.19;77.92;103375.34;5095968;28;20024;-67
2022/01/24 11:09:11;;;;;;;35.97;18.80;;;;;;;5.27;78.80;103375.72;5095761;28;20040;-71
2022/01/24 11:11:37;;;;;;;32.13;18.50;;;;;;;5.24;77.49;103371.25;5095752;28;20028;-70
2022/01/24 11:14:02;;;;;;;32.13;18.02;;;;;;;5.21;77.04;103371.09;5096286;28;20101;-71
2022/01/24 11:16:28;;;;;;;36.25;19.92;;;;;;;5.20;79.52;103371.91;5096367;28;20111;-71
2022/01/24 11:18:54;;;;;;;34.60;19.63;;;;;;;5.28;78.41;103374.91;5096260;28;20028;-70
2022/01/24 11:21:19;;;;;;;33.63;19.45;;;;;;;5.26;78.79;103373.94;5096060;28;20100;-70
2022/01/24 11:23:45;;;;;;;34.28;19.67;;;;;;;5.30;77.90;103380.16;5095876;28;20462;-69
2022/01/24 11:26:11;;;;;;;32.17;19.10;;;;;;;5.27;77.55;103380.00;5095598;28;20032;-69
2022/01/24 11:28:37;;;;;;;35.53;19.85;;;;;;;5.29;78.98;103379.28;5095396;28;20032;-68
2022/01/24 11:31:26;;;;;;;35.50;19.63;;;;;;;5.33;78.98;103362.16;5096048;28;20028;-73
2022/01/24 11:34:11;;;;;;;31.98;19.27;;;;;;;5.32;79.53;103352.56;5095843;28;20024;-73
2022/01/24 11:36:39;;;;;;;35.33;19.40;;;;;;;5.35;78.01;103358.81;5094891;28;20031;-69
2022/01/24 11:39:06;;;;;;;31.17;18.80;;;;;;;5.36;77.25;103367.50;5095653;28;20032;-70
2022/01/24 11:41:35;;;;;;;32.88;19.52;;;;;;;5.31;78.20;103367.25;5095450;28;20039;-70
2022/01/24 11:44:11;;;;;;;32.75;19.25;;;;;;;5.31;78.10;103369.84;5095678;28;20415;-69
2022/01/24 11:46:41;;;;;;;35.20;20.20;;;;;;;5.38;78.35;103376.22;5080396;28;20052;-69
2022/01/24 11:49:10;;;;;;;36.90;20.38;;;;;;;5.38;78.07;103366.72;5074982;28;20115;-62
2022/01/24 11:51:39;;;;;;;34.35;20.35;;;;;;;5.33;77.56;103360.44;5075308;28;20367;-73
2022/01/24 11:54:32;;;;;;;35.53;19.90;;;;;;;5.38;78.74;103363.25;5074880;28;20459;-70
2022/01/24 11:57:22;;;;;;;35.13;20.25;;;;;;;5.44;78.94;103359.25;5075245;28;20032;-71
2022/01/24 11:59:50;;;;;;;37.08;20.20;;;;;;;5.43;77.81;103354.84;5075348;28;20041;-68
2022/01/24 12:02:22;;;;;;;34.80;19.88;;;;;;;5.46;77.68;103346.34;5074969;28;20031;-71
2022/01/24 12:04:56;;;;;;;34.15;20.13;;;;;;;5.46;78.39;103338.53;5074669;28;20470;-68
2022/01/24 12:07:27;;;;;;;36.80;20.05;;;;;;;5.54;77.94;103342.41;5057174;28;20033;-70
2022/01/24 12:09:55;;;;;;;36.45;20.13;;;;;;;5.61;77.60;103334.06;5074704;28;20028;-70
2022/01/24 12:12:48;;;;;;;33.78;19.77;;;;;;;5.60;78.22;103330.56;5074910;28;20173;-70
2022/01/24 12:15:39;;;;;;;35.40;20.08;;;;;;;5.54;78.07;103351.06;5074682;28;20425;-70
2022/01/24 12:18:40;;;;;;;39.40;21.30;;;;;;;5.47;79.15;103342.91;5075029;28;20032;-69
2022/01/24 12:21:14;;;;;;;36.47;20.07;;;;;;;5.56;76.67;103338.16;5083097;28;20028;-69
2022/01/24 12:23:48;;;;;;;35.15;19.52;;;;;;;5.55;76.87;103334.66;5077767;28;20024;-69
2022/01/24 12:26:14;;;;;;;37.60;21.25;;;;;;;5.46;76.70;103335.94;5075270;28;20097;-60
2022/01/24 12:28:42;;;;;;;34.83;19.97;;;;;;;5.49;76.86;103339.59;5075523;28;20439;-70
2022/01/24 12:31:23;;;;;;;34.78;20.48;;;;;;;5.56;77.83;103336.44;5075250;28;20025;-71
2022/01/24 12:33:55;;;;;;;33.88;20.55;;;;;;;5.60;76.59;103332.28;5074802;28;20042;-71
2022/01/24 12:39:23;;;;;;;35.13;20.10;;;;;;;5.52;75.21;103331.06;5074862;28;20106;-70
2022/01/24 12:41:56;;;;;;;35.08;19.90;;;;;;;5.48;75.80;103330.00;5074867;28;20115;-70
2022/01/24 12:47:05;;;;;;;36.40;20.75;;;;;;;5.40;74.62;103325.25;5076043;28;20036;-71
2022/01/24 12:49:31;;;;;;;36.33;20.10;;;;;;;5.34;75.41;103314.59;5078778;28;20101;-70
2022/01/24 12:52:06;;;;;;;35.08;20.85;;;;;;;5.45;76.52;103316.88;5078548;28;20336;-72
2022/01/24 12:54:37;;;;;;;35.22;20.58;;;;;;;5.55;77.02;103318.19;5079033;28;20052;-71
2022/01/24 12:57:05;;;;;;;34.28;20.05;;;;;;;5.64;76.48;103318.63;5078620;28;20424;-70
2022/01/24 12:59:31;;;;;;;40.25;21.85;;;;;;;5.63;76.56;103308.16;5078670;28;20036;-71